Time;durP1;ratioP1;P1;durP2;ratioP2;P2;SDS_P1;SDS_P2;PMS_P1;PMS_P2;Temp;Humidity;BMP_temperature;BMP_pressure;BME280_temperature;BME280_humidity;BME280_pressure;Samples;Min_cycle;Max_cycle;Signal;HPM_P1;HPM_P2
2022/06/11 00:01:54;;;;;;;15.90;14.40;;;17.20;99.90;;;;;;5056102;28;20037;-27
2022/06/11 00:04:25;;;;;;;16.38;14.68;;;17.20;99.90;;;;;;5056791;28;20396;-27
2022/06/11 00:07:03;;;;;;;19.08;14.75;;;17.20;99.90;;;;;;5056704;28;20067;-27
2022/06/11 00:09:31;;;;;;;19.30;15.15;;;17.20;99.90;;;;;;5056674;28;20049;-27
2022/06/11 00:11:57;;;;;;;17.23;14.10;;;17.20;99.90;;;;;;5056435;28;20045;-27
2022/06/11 00:14:26;;;;;;;16.00;14.10;;;17.10;99.90;;;;;;5038890;28;20072;-27
2022/06/11 00:16:53;;;;;;;16.17;13.43;;;17.10;99.90;;;;;;5038544;28;20091;-27
2022/06/11 00:19:20;;;;;;;16.10;13.43;;;17.10;99.90;;;;;;5056693;28;20076;-27
2022/06/11 00:21:47;;;;;;;14.43;13.02;;;17.10;99.90;;;;;;5056563;28;20040;-27
2022/06/11 00:24:14;;;;;;;14.70;11.65;;;17.10;99.90;;;;;;5057328;28;20090;-27
2022/06/11 00:26:42;;;;;;;13.70;11.45;;;17.10;99.90;;;;;;5055899;28;20046;-27
2022/06/11 00:29:10;;;;;;;13.68;10.52;;;17.10;99.90;;;;;;5056981;28;20037;-27
2022/06/11 00:31:35;;;;;;;12.45;10.57;;;17.10;99.90;;;;;;5039250;28;20117;-27
2022/06/11 00:34:02;;;;;;;12.88;10.82;;;17.10;99.90;;;;;;5056227;28;20037;-27
2022/06/11 00:36:28;;;;;;;11.00;9.95;;;17.10;99.90;;;;;;5056874;28;20072;-26
2022/06/11 00:38:54;;;;;;;12.18;10.07;;;17.00;99.90;;;;;;5056699;28;20040;-26
2022/06/11 00:41:23;;;;;;;11.95;9.68;;;17.00;99.90;;;;;;5056895;28;20095;-27
2022/06/11 00:43:49;;;;;;;11.50;9.90;;;16.90;99.90;;;;;;5056736;28;20090;-26
2022/06/11 00:46:39;;;;;;;11.43;10.13;;;16.90;99.90;;;;;;5038375;28;20078;-26
2022/06/11 00:49:17;;;;;;;11.30;10.13;;;16.80;99.90;;;;;;5056398;28;20056;-26
2022/06/11 00:51:42;;;;;;;12.02;10.82;;;16.80;99.90;;;;;;5056154;28;20094;-27
2022/06/11 00:54:14;;;;;;;15.45;11.07;;;16.70;99.90;;;;;;5055527;28;20044;-27
2022/06/11 00:56:49;;;;;;;12.38;11.10;;;16.70;99.90;;;;;;5055509;28;20041;-27
2022/06/11 00:59:21;;;;;;;15.05;11.32;;;16.70;99.90;;;;;;5037644;28;20044;-27
2022/06/11 01:01:47;;;;;;;12.10;10.90;;;16.60;99.90;;;;;;5055787;28;20071;-27
2022/06/11 01:04:34;;;;;;;14.15;11.45;;;16.60;99.90;;;;;;5037870;28;20033;-27
2022/06/11 01:07:31;;;;;;;15.63;10.82;;;16.60;99.90;;;;;;5037549;28;20077;-27
2022/06/11 01:09:57;;;;;;;12.48;11.05;;;16.50;99.90;;;;;;5055821;28;20067;-27
2022/06/11 01:13:06;;;;;;;12.45;10.88;;;16.40;99.90;;;;;;5055263;28;20538;-27
2022/06/11 01:15:46;;;;;;;11.88;10.38;;;16.40;99.90;;;;;;5054833;28;20041;-27
2022/06/11 01:18:28;;;;;;;12.43;11.02;;;16.40;99.90;;;;;;5037745;28;20516;-27
2022/06/11 01:21:21;;;;;;;13.32;10.82;;;16.30;99.90;;;;;;5037494;28;20106;-27
2022/06/11 01:24:07;;;;;;;12.10;10.13;;;16.30;99.90;;;;;;5055375;28;20116;-27
2022/06/11 01:26:59;;;;;;;12.93;10.18;;;16.10;99.90;;;;;;5023109;28;20052;-27
2022/06/11 01:29:33;;;;;;;11.95;10.18;;;16.10;99.90;;;;;;5055414;28;20041;-27
2022/06/11 01:32:16;;;;;;;11.93;10.57;;;16.00;99.90;;;;;;5054868;28;20036;-27
2022/06/11 01:35:20;;;;;;;11.73;10.48;;;16.00;99.90;;;;;;5036820;28;20231;-27
2022/06/11 01:38:03;;;;;;;13.25;10.02;;;15.90;99.90;;;;;;5054439;28;20091;-27
2022/06/11 01:40:42;;;;;;;12.93;9.95;;;15.80;99.90;;;;;;5054940;28;20044;-27
2022/06/11 01:43:24;;;;;;;16.02;11.35;;;15.70;99.90;;;;;;5036742;28;20048;-27
2022/06/11 01:45:51;;;;;;;12.77;10.68;;;15.70;99.90;;;;;;5054754;28;20056;-27
2022/06/11 01:48:22;;;;;;;15.35;10.15;;;15.60;99.90;;;;;;5054996;28;20102;-27
2022/06/11 01:50:59;;;;;;;11.70;10.48;;;15.60;99.90;;;;;;5054728;28;20090;-27
2022/06/11 01:53:42;;;;;;;12.77;10.63;;;15.60;99.90;;;;;;5054722;28;20045;-27
2022/06/11 01:56:41;;;;;;;12.18;10.50;;;15.50;99.90;;;;;;5036574;28;20319;-26
2022/06/11 01:59:33;;;;;;;11.88;10.48;;;15.40;99.90;;;;;;5019548;28;20045;-27
2022/06/11 02:02:14;;;;;;;16.20;12.35;;;15.40;99.90;;;;;;5020335;28;20044;-27
2022/06/11 02:05:25;;;;;;;15.18;10.60;;;15.30;99.90;;;;;;5054774;28;20037;-27
2022/06/11 02:08:19;;;;;;;10.98;9.75;;;15.40;99.90;;;;;;5033157;28;20496;-27
2022/06/11 02:10:54;;;;;;;13.93;11.57;;;15.30;99.90;;;;;;5054250;28;20101;-27
2022/06/11 02:13:59;;;;;;;14.13;12.68;;;15.30;99.90;;;;;;5053968;28;20037;-27
2022/06/11 02:16:32;;;;;;;;;;;15.40;99.90;;;;;;5054525;28;20041;-26
2022/06/11 02:19:02;;;;;;;14.13;11.30;;;15.50;99.90;;;;;;5053767;28;20019;-26
2022/06/11 02:21:32;;;;;;;20.58;14.90;;;15.50;99.90;;;;;;5054572;28;20059;-27
2022/06/11 02:24:02;;;;;;;14.95;13.55;;;15.50;99.90;;;;;;5054028;28;20480;-27
2022/06/11 02:26:31;;;;;;;18.95;15.52;;;15.60;99.90;;;;;;5054094;28;20415;-27
2022/06/11 02:28:59;;;;;;;17.05;13.38;;;15.60;99.90;;;;;;5036212;28;20404;-26
2022/06/11 02:31:30;;;;;;;21.58;16.10;;;15.60;99.90;;;;;;5036155;28;20047;-27
2022/06/11 02:33:56;;;;;;;18.55;15.02;;;15.70;99.90;;;;;;5054074;28;20040;-27
2022/06/11 02:36:32;;;;;;;18.02;16.25;;;15.70;99.90;;;;;;5036087;28;20045;-27
2022/06/11 02:39:01;;;;;;;19.05;15.40;;;15.70;99.90;;;;;;5036876;28;20048;-27
2022/06/11 02:41:30;;;;;;;18.38;16.33;;;15.70;99.90;;;;;;5054217;28;20490;-28
2022/06/11 02:43:56;;;;;;;20.52;17.25;;;15.70;99.90;;;;;;5035299;28;20037;-28
2022/06/11 02:49:16;;;;;;;17.83;15.95;;;15.80;99.90;;;;;;5042853;28;20566;-28
2022/06/11 02:51:42;;;;;;;20.00;17.73;;;15.80;99.90;;;;;;5050501;28;20040;-27
2022/06/11 02:54:08;;;;;;;19.30;17.10;;;15.70;99.90;;;;;;5033407;28;20128;-28
2022/06/11 02:56:34;;;;;;;19.70;16.65;;;15.70;99.90;;;;;;5046405;28;20036;-28
2022/06/11 02:59:00;;;;;;;17.63;15.90;;;15.70;99.90;;;;;;5052313;28;20041;-28
2022/06/11 03:01:26;;;;;;;20.92;15.93;;;15.70;99.90;;;;;;5030394;28;21492;-28
2022/06/11 03:03:53;;;;;;;19.70;16.63;;;15.60;99.90;;;;;;5052310;28;20048;-28
2022/06/11 03:06:22;;;;;;;20.10;17.08;;;15.60;99.90;;;;;;5053178;28;20431;-26
2022/06/11 03:08:48;;;;;;;18.73;15.43;;;15.60;99.90;;;;;;5002636;28;20124;-27
2022/06/11 03:11:15;;;;;;;19.75;15.88;;;15.60;99.90;;;;;;5035399;28;20083;-26
2022/06/11 03:13:41;;;;;;;18.40;15.30;;;15.50;99.90;;;;;;5053539;28;20045;-26
2022/06/11 03:16:07;;;;;;;16.83;14.40;;;15.50;99.90;;;;;;5053249;28;20455;-26
2022/06/11 03:18:33;;;;;;;15.52;13.82;;;15.50;99.90;;;;;;5052961;28;20037;-25
2022/06/11 03:20:59;;;;;;;18.10;14.20;;;15.40;99.90;;;;;;5018782;28;20037;-25
2022/06/11 03:23:26;;;;;;;14.88;12.40;;;15.40;99.90;;;;;;5053384;28;20037;-25
2022/06/11 03:25:53;;;;;;;14.10;11.75;;;15.40;99.90;;;;;;5035164;28;20048;-26
2022/06/11 03:28:23;;;;;;;14.95;11.68;;;15.30;99.90;;;;;;5053266;28;20500;-26
2022/06/11 03:30:50;;;;;;;15.73;10.85;;;15.30;99.90;;;;;;5034678;28;20044;-26
2022/06/11 03:33:16;;;;;;;13.18;10.27;;;15.30;99.90;;;;;;5035130;28;20047;-26
2022/06/11 03:35:44;;;;;;;14.55;11.35;;;15.20;99.90;;;;;;5053145;28;20053;-26
2022/06/11 03:38:11;;;;;;;12.68;10.13;;;15.20;99.90;;;;;;5052852;28;20037;-26
2022/06/11 03:40:37;;;;;;;11.23;9.40;;;15.20;99.90;;;;;;5035545;28;20040;-26
2022/06/11 03:43:03;;;;;;;10.82;9.73;;;15.10;99.90;;;;;;5032805;28;20034;-28
2022/06/11 03:45:31;;;;;;;10.60;9.52;;;15.10;99.90;;;;;;5016911;28;20060;-26
2022/06/11 03:47:57;;;;;;;13.40;8.80;;;15.10;99.90;;;;;;5044014;28;20041;-28
2022/06/11 03:50:28;;;;;;;12.63;8.35;;;15.00;99.90;;;;;;5050122;28;20037;-28
2022/06/11 03:52:54;;;;;;;10.90;8.38;;;15.00;99.90;;;;;;5047058;28;20559;-28
2022/06/11 03:55:23;;;;;;;12.30;7.70;;;15.00;99.90;;;;;;5030695;28;20515;-28
2022/06/11 03:57:50;;;;;;;10.95;7.28;;;15.00;99.90;;;;;;5051472;28;20147;-28
2022/06/11 04:01:14;;;;;;;7.80;7.00;;;15.10;99.90;;;;;;5046393;28;20044;-28
2022/06/11 04:03:05;;;;;;;12.45;6.80;;;15.10;99.90;;;;;;5053223;28;20407;-28
2022/06/11 04:05:31;;;;;;;9.23;6.45;;;15.20;99.90;;;;;;5049996;28;20116;-28
2022/06/11 04:07:57;;;;;;;10.88;5.88;;;15.20;99.90;;;;;;5032054;28;20045;-28
2022/06/11 04:10:23;;;;;;;9.32;5.85;;;15.20;99.90;;;;;;5021385;28;20038;-28
2022/06/11 04:12:49;;;;;;;9.95;5.65;;;15.20;99.90;;;;;;5037596;28;20068;-28
2022/06/11 04:15:15;;;;;;;9.13;5.40;;;15.10;99.90;;;;;;5051795;28;20053;-28
2022/06/11 04:17:41;;;;;;;11.30;4.60;;;15.10;99.90;;;;;;5036072;28;20080;-28
2022/06/11 04:20:07;;;;;;;11.00;5.47;;;15.10;99.90;;;;;;5042285;28;20516;-28
2022/06/11 04:22:33;;;;;;;9.55;4.78;;;15.10;99.90;;;;;;5031207;28;20040;-28
2022/06/11 04:24:59;;;;;;;13.55;5.40;;;15.10;99.90;;;;;;5047623;28;20036;-28
2022/06/11 04:27:25;;;;;;;9.70;4.85;;;15.10;99.90;;;;;;5049456;28;20037;-29
2022/06/11 04:29:55;;;;;;;9.57;4.53;;;15.00;99.90;;;;;;5030268;28;20037;-29
2022/06/11 04:32:22;;;;;;;10.95;4.82;;;15.00;99.90;;;;;;5033656;28;20041;-29
2022/06/11 04:34:49;;;;;;;12.20;5.40;;;15.00;99.90;;;;;;5023314;28;20092;-29
2022/06/11 04:37:17;;;;;;;12.63;5.80;;;15.00;99.90;;;;;;5054736;28;20041;-29
2022/06/11 04:39:47;;;;;;;10.60;4.78;;;15.00;99.90;;;;;;5053692;28;20068;-28
2022/06/11 04:42:14;;;;;;;8.15;4.82;;;15.00;99.90;;;;;;5036719;28;20060;-29
2022/06/11 04:44:40;;;;;;;10.32;5.00;;;15.00;99.90;;;;;;5047639;28;20041;-29
2022/06/11 04:47:08;;;;;;;12.70;6.13;;;15.00;99.90;;;;;;5026099;28;20075;-27
2022/06/11 04:49:34;;;;;;;13.15;6.40;;;15.10;99.90;;;;;;5036534;28;20041;-27
2022/06/11 04:52:00;;;;;;;8.18;5.97;;;15.10;99.90;;;;;;5051986;28;20043;-28
2022/06/11 04:54:26;;;;;;;8.00;6.03;;;15.10;99.90;;;;;;5053193;28;20497;-28
2022/06/11 04:56:52;;;;;;;15.07;6.32;;;15.10;99.90;;;;;;5037007;28;20049;-28
2022/06/11 04:59:18;;;;;;;10.00;6.22;;;15.20;99.90;;;;;;5033207;28;20094;-28
2022/06/11 05:01:44;;;;;;;9.30;6.88;;;15.20;99.90;;;;;;5030236;28;20048;-28
2022/06/11 05:04:12;;;;;;;12.50;7.03;;;15.30;99.90;;;;;;5048851;28;20040;-28
2022/06/11 05:06:41;;;;;;;9.50;7.13;;;15.30;99.90;;;;;;5049239;28;20040;-28
2022/06/11 05:09:12;;;;;;;12.05;7.35;;;15.40;99.90;;;;;;5053449;28;20069;-28
2022/06/11 05:11:39;;;;;;;9.05;7.30;;;15.40;99.90;;;;;;5051129;28;20032;-28
2022/06/11 05:14:05;;;;;;;9.23;6.65;;;15.50;99.90;;;;;;5008825;28;20086;-28
2022/06/11 05:16:31;;;;;;;12.20;7.07;;;15.60;99.90;;;;;;5042329;28;20505;-28
2022/06/11 05:18:57;;;;;;;12.95;7.00;;;15.60;99.90;;;;;;5047279;28;20099;-28
2022/06/11 05:21:23;;;;;;;9.43;6.78;;;15.70;99.90;;;;;;5044388;28;20412;-28
2022/06/11 05:23:49;;;;;;;14.75;6.38;;;15.70;99.90;;;;;;5039839;28;20033;-28
2022/06/11 05:26:33;;;;;;;10.63;5.80;;;15.80;99.90;;;;;;5027007;28;20504;-28
2022/06/11 05:28:58;;;;;;;11.90;6.15;;;15.80;99.90;;;;;;5031228;28;20045;-28
2022/06/11 05:31:24;;;;;;;12.40;6.65;;;15.90;99.90;;;;;;5015104;28;20041;-28
2022/06/11 05:33:50;;;;;;;11.80;5.90;;;16.00;99.90;;;;;;5048150;28;20068;-28
2022/06/11 05:36:16;;;;;;;10.38;6.32;;;16.00;99.90;;;;;;5036083;28;20091;-28
2022/06/11 05:38:42;;;;;;;9.77;5.70;;;16.10;99.90;;;;;;5036215;28;20044;-26
2022/06/11 05:41:09;;;;;;;10.40;5.72;;;16.20;99.90;;;;;;5037247;28;20040;-27
2022/06/11 05:43:35;;;;;;;10.77;5.32;;;16.20;99.90;;;;;;5054956;28;20041;-27
2022/06/11 05:46:27;;;;;;;9.55;5.38;;;16.30;99.90;;;;;;5054843;28;20350;-26
2022/06/11 05:49:04;;;;;;;12.27;5.50;;;16.30;99.90;;;;;;5050194;28;20103;-26
2022/06/11 05:51:43;;;;;;;12.68;5.63;;;16.40;99.90;;;;;;5053897;28;20125;-26
2022/06/11 05:54:13;;;;;;;11.32;5.32;;;16.50;99.90;;;;;;5054345;28;20049;-27
2022/06/11 05:56:39;;;;;;;13.27;6.00;;;16.50;99.90;;;;;;5054341;28;20087;-26
2022/06/11 05:59:10;;;;;;;12.98;5.57;;;16.60;99.90;;;;;;5036008;28;20055;-26
2022/06/11 06:01:40;;;;;;;13.80;4.90;;;16.70;99.90;;;;;;5053716;28;20102;-26
2022/06/11 06:04:06;;;;;;;8.98;5.13;;;16.80;99.90;;;;;;5054008;28;20040;-26
2022/06/11 06:06:32;;;;;;;13.02;4.88;;;16.80;99.90;;;;;;5054034;28;20040;-27
2022/06/11 06:08:58;;;;;;;12.93;5.10;;;16.80;99.90;;;;;;5054406;28;20127;-26
2022/06/11 06:11:25;;;;;;;12.98;5.47;;;16.90;99.90;;;;;;5054204;28;20134;-26
2022/06/11 06:13:52;;;;;;;11.52;4.65;;;17.00;99.90;;;;;;5036622;28;20041;-26
2022/06/11 06:16:21;;;;;;;15.15;5.22;;;17.10;99.90;;;;;;5054043;28;20052;-26
2022/06/11 06:18:48;;;;;;;17.33;6.20;;;17.20;99.90;;;;;;5053393;28;20037;-27
2022/06/11 06:21:15;;;;;;;11.32;4.32;;;17.20;99.90;;;;;;5053803;28;20036;-26
2022/06/11 06:23:41;;;;;;;11.30;5.07;;;17.30;99.90;;;;;;5034934;28;20083;-26
2022/06/11 06:26:07;;;;;;;11.45;4.78;;;17.20;99.90;;;;;;5050871;28;20040;-26
2022/06/11 06:28:34;;;;;;;11.05;4.43;;;17.20;99.90;;;;;;5033580;28;20037;-27
2022/06/11 06:31:02;;;;;;;9.18;4.20;;;17.30;99.90;;;;;;5037630;28;20057;-27
2022/06/11 06:33:30;;;;;;;14.27;4.43;;;17.40;99.90;;;;;;5055039;28;20048;-26
2022/06/11 06:36:00;;;;;;;12.13;4.38;;;17.40;99.90;;;;;;5073219;28;20044;-26
2022/06/11 06:38:26;;;;;;;15.05;4.78;;;17.50;99.90;;;;;;5055122;28;20097;-26
2022/06/11 06:40:52;;;;;;;23.38;6.53;;;17.50;99.90;;;;;;5054351;28;20056;-26
2022/06/11 06:43:19;;;;;;;14.15;4.82;;;17.50;99.90;;;;;;5052683;28;20093;-27
2022/06/11 06:45:45;;;;;;;14.45;4.15;;;17.50;99.90;;;;;;5018812;28;20492;-26
2022/06/11 06:48:11;;;;;;;12.90;4.78;;;17.60;99.90;;;;;;5053498;28;20045;-26
2022/06/11 06:50:37;;;;;;;15.55;4.93;;;17.60;99.90;;;;;;5053470;28;20048;-26
2022/06/11 06:53:03;;;;;;;12.45;4.35;;;17.60;99.90;;;;;;5053987;28;20524;-27
2022/06/11 06:55:29;;;;;;;15.20;4.90;;;17.60;99.90;;;;;;5035685;28;20068;-26
2022/06/11 06:57:54;;;;;;;15.25;4.95;;;17.70;99.90;;;;;;5036234;28;20041;-26
2022/06/11 07:00:20;;;;;;;15.68;4.60;;;17.80;99.90;;;;;;5052684;28;20095;-26
2022/06/11 07:02:47;;;;;;;15.52;4.78;;;17.90;99.90;;;;;;5053491;28;20029;-26
2022/06/11 07:05:14;;;;;;;17.45;5.50;;;18.00;99.90;;;;;;5054031;28;20037;-26
2022/06/11 07:07:40;;;;;;;12.10;5.07;;;18.10;99.90;;;;;;5054182;28;20048;-26
2022/06/11 07:10:09;;;;;;;13.10;4.75;;;18.20;99.90;;;;;;5035036;28;20037;-26
2022/06/11 07:12:35;;;;;;;10.38;4.43;;;18.30;99.90;;;;;;5052720;28;20033;-26
2022/06/11 07:15:01;;;;;;;13.30;4.82;;;18.30;99.90;;;;;;5052234;28;20063;-26
2022/06/11 07:17:34;;;;;;;11.68;4.25;;;18.40;99.90;;;;;;5051855;28;20039;-27
2022/06/11 07:20:21;;;;;;;15.80;5.18;;;18.50;99.90;;;;;;5051931;28;20116;-27
2022/06/11 07:22:57;;;;;;;16.30;4.97;;;18.60;99.90;;;;;;5021935;28;20080;-27
2022/06/11 07:25:24;;;;;;;16.33;4.60;;;18.70;99.90;;;;;;5052167;28;20033;-25
2022/06/11 07:27:56;;;;;;;17.38;4.57;;;18.80;99.90;;;;;;5051755;28;20132;-27
2022/06/11 07:30:25;;;;;;;13.90;4.13;;;18.90;99.90;;;;;;5050649;28;20443;-26
2022/06/11 07:33:05;;;;;;;17.80;4.75;;;19.00;99.90;;;;;;5050910;28;20039;-26
2022/06/11 07:35:32;;;;;;;23.35;5.68;;;19.10;99.90;;;;;;5052454;28;20124;-26
2022/06/11 07:37:57;;;;;;;15.93;5.38;;;19.20;99.90;;;;;;5036980;28;20040;-26
2022/06/11 07:40:24;;;;;;;17.90;5.40;;;19.40;99.90;;;;;;5054677;28;20503;-26
2022/06/11 07:42:50;;;;;;;14.75;4.38;;;19.50;99.90;;;;;;5055036;28;20098;-26
2022/06/11 07:45:16;;;;;;;13.93;4.60;;;19.50;99.90;;;;;;5041444;28;20412;-26
2022/06/11 07:47:54;;;;;;;14.75;4.82;;;19.50;99.90;;;;;;5033946;28;20147;-26
2022/06/11 07:50:26;;;;;;;14.32;4.75;;;19.60;99.90;;;;;;5039744;28;20033;-26
2022/06/11 07:52:51;;;;;;;17.67;6.03;;;19.80;99.90;;;;;;5048385;28;20487;-26
2022/06/11 07:55:18;;;;;;;17.35;5.47;;;19.90;99.90;;;;;;5051782;28;20084;-26
2022/06/11 07:57:44;;;;;;;16.17;5.25;;;20.10;99.90;;;;;;5031484;28;20120;-26
2022/06/11 08:00:13;;;;;;;15.55;4.63;;;20.10;99.90;;;;;;5063117;28;20112;-26
2022/06/11 08:02:38;;;;;;;13.35;4.50;;;20.20;99.90;;;;;;5060793;28;20094;-26
2022/06/11 08:05:05;;;;;;;17.17;5.25;;;20.40;99.90;;;;;;5061699;28;20037;-26
2022/06/11 08:07:31;;;;;;;17.45;5.20;;;20.40;99.90;;;;;;5061605;28;20076;-27
2022/06/11 08:09:58;;;;;;;14.52;5.25;;;20.30;99.90;;;;;;5057171;28;20033;-26
2022/06/11 08:12:26;;;;;;;18.85;5.13;;;20.40;99.90;;;;;;5055562;28;20041;-26
2022/06/11 08:14:56;;;;;;;14.50;5.45;;;20.60;99.90;;;;;;5054402;28;20450;-26
2022/06/11 08:17:24;;;;;;;17.80;5.10;;;20.70;99.90;;;;;;5054172;28;20480;-26
2022/06/11 08:19:50;;;;;;;14.93;5.13;;;20.80;99.90;;;;;;5041123;28;20041;-26
2022/06/11 08:22:16;;;;;;;15.32;4.75;;;20.90;99.90;;;;;;5070102;28;20130;-26
2022/06/11 08:24:42;;;;;;;16.35;4.63;;;21.00;99.90;;;;;;5058261;28;20085;-26
2022/06/11 08:27:07;;;;;;;16.15;5.22;;;21.20;99.90;;;;;;5054301;28;20045;-26
2022/06/11 08:29:34;;;;;;;17.20;4.88;;;21.30;99.90;;;;;;5035333;28;20106;-26
2022/06/11 08:31:59;;;;;;;13.50;4.55;;;21.60;99.90;;;;;;5054289;28;20507;-27
2022/06/11 08:34:25;;;;;;;14.13;4.78;;;21.70;99.90;;;;;;5047339;28;20404;-27
2022/06/11 08:36:51;;;;;;;15.85;4.65;;;21.80;99.90;;;;;;5030440;28;20481;-26
2022/06/11 08:39:17;;;;;;;19.15;6.03;;;21.70;99.90;;;;;;5053792;28;20041;-27
2022/06/11 08:41:43;;;;;;;17.08;4.85;;;21.70;99.90;;;;;;5055924;28;20476;-29
2022/06/11 08:44:12;;;;;;;17.35;4.90;;;21.80;99.90;;;;;;5041379;28;20044;-29
2022/06/11 08:46:41;;;;;;;13.45;4.75;;;22.10;99.90;;;;;;5037958;28;20044;-29
2022/06/11 08:49:17;;;;;;;16.08;4.78;;;22.10;99.90;;;;;;5040056;28;20042;-30
2022/06/11 08:51:44;;;;;;;12.25;4.35;;;22.40;99.90;;;;;;5047428;28;20052;-30
2022/06/11 08:54:25;;;;;;;15.85;4.63;;;22.50;99.90;;;;;;5042219;28;20060;-30
2022/06/11 08:56:57;;;;;;;14.48;4.82;;;22.60;99.90;;;;;;5043533;28;20044;-30
2022/06/11 08:59:31;;;;;;;13.20;4.55;;;22.70;99.90;;;;;;5048366;28;20094;-29
2022/06/11 09:02:35;;;;;;;19.23;4.85;;;22.90;99.90;;;;;;5040943;28;20124;-30
2022/06/11 09:05:28;;;;;;;14.15;4.25;;;22.90;99.90;;;;;;5032367;28;20052;-29
2022/06/11 09:08:12;;;;;;;15.45;4.45;;;23.20;99.90;;;;;;5025807;28;20037;-30
2022/06/11 09:11:22;;;;;;;14.80;4.88;;;23.40;99.90;;;;;;5051589;28;20102;-30
2022/06/11 09:14:15;;;;;;;12.75;3.92;;;23.60;99.90;;;;;;5001613;28;20075;-29
2022/06/11 09:17:05;;;;;;;13.77;4.43;;;23.60;99.90;;;;;;5043224;28;20041;-30
2022/06/11 09:19:48;;;;;;;14.80;4.40;;;23.30;98.40;;;;;;5044681;28;20148;-29
2022/06/11 09:22:32;;;;;;;11.07;4.07;;;22.70;99.90;;;;;;5046493;28;20425;-30
2022/06/11 09:25:21;;;;;;;16.08;4.43;;;22.70;99.90;;;;;;5046405;28;20055;-30
2022/06/11 09:28:03;;;;;;;15.73;4.80;;;22.70;99.90;;;;;;5038985;28;20070;-30
2022/06/11 09:31:11;;;;;;;16.40;4.80;;;22.70;99.90;;;;;;5025366;28;20155;-28
2022/06/11 09:34:07;;;;;;;17.35;4.85;;;22.70;98.10;;;;;;5018756;28;20036;-27
2022/06/11 09:36:39;;;;;;;19.02;4.32;;;22.70;99.90;;;;;;5052894;28;20103;-28
2022/06/11 09:39:10;;;;;;;14.73;4.32;;;22.70;99.90;;;;;;5052270;28;20048;-27
2022/06/11 09:41:52;;;;;;;16.23;4.65;;;23.00;99.90;;;;;;5052899;28;20124;-28
2022/06/11 09:44:42;;;;;;;11.82;3.50;;;23.30;99.70;;;;;;5052411;28;20081;-28
2022/06/11 09:47:29;;;;;;;12.55;3.83;;;23.70;97.00;;;;;;5052410;28;20041;-28
2022/06/11 09:50:16;;;;;;;13.27;3.88;;;23.80;99.30;;;;;;5052709;28;20503;-28
2022/06/11 09:53:05;;;;;;;13.68;4.30;;;23.70;99.90;;;;;;5035004;28;20424;-28
2022/06/11 09:55:42;;;;;;;8.38;3.13;;;23.80;99.10;;;;;;5052922;28;20049;-28
2022/06/11 09:58:29;;;;;;;11.18;3.40;;;23.90;93.10;;;;;;5051825;28;20044;-28
2022/06/11 10:01:00;;;;;;;14.05;3.63;;;24.20;91.30;;;;;;5052675;28;20117;-28
2022/06/11 10:03:37;;;;;;;11.80;3.58;;;24.20;93.30;;;;;;5052478;28;20412;-28
2022/06/11 10:06:29;;;;;;;11.88;3.72;;;24.00;77.40;;;;;;5034033;28;20489;-29
2022/06/11 10:08:59;;;;;;;9.57;2.95;;;24.10;79.90;;;;;;5051815;28;20087;-27
2022/06/11 10:11:48;;;;;;;9.80;2.60;;;24.20;83.00;;;;;;5052344;28;20037;-27
2022/06/11 10:14:29;;;;;;;7.93;2.80;;;24.30;67.20;;;;;;5052434;28;20055;-27
2022/06/11 10:17:01;;;;;;;7.72;3.00;;;24.60;78.90;;;;;;5052164;28;20289;-27
2022/06/11 10:19:54;;;;;;;9.98;3.20;;;24.80;64.70;;;;;;5034140;28;20041;-27
2022/06/11 10:22:34;;;;;;;10.98;2.75;;;25.00;61.50;;;;;;5052109;28;20094;-27
2022/06/11 10:25:28;;;;;;;9.63;3.30;;;25.20;57.20;;;;;;5053811;28;20072;-28
2022/06/11 10:28:04;;;;;;;9.98;2.67;;;25.30;55.90;;;;;;5034831;28;20051;-28
2022/06/11 10:31:04;;;;;;;13.23;3.15;;;25.40;60.50;;;;;;5053263;28;20048;-27
2022/06/11 10:33:47;;;;;;;12.23;3.53;;;25.40;56.20;;;;;;5047273;28;20557;-30
2022/06/11 10:36:42;;;;;;;11.60;3.17;;;25.30;59.70;;;;;;5025802;28;20037;-28
2022/06/11 10:39:28;;;;;;;10.90;3.05;;;25.40;53.30;;;;;;5046212;28;20174;-27
2022/06/11 10:42:15;;;;;;;8.05;2.67;;;25.40;57.70;;;;;;5040882;28;20381;-27
2022/06/11 10:44:46;;;;;;;6.78;2.80;;;25.50;52.40;;;;;;5042239;28;20032;-27
2022/06/11 10:47:32;;;;;;;6.00;2.30;;;25.60;55.90;;;;;;5045854;28;20038;-27
2022/06/11 10:50:11;;;;;;;10.02;3.28;;;25.80;51.30;;;;;;5041424;28;20499;-27
2022/06/11 10:52:48;;;;;;;9.07;3.08;;;25.70;52.50;;;;;;5038528;28;20037;-27
2022/06/11 10:55:24;;;;;;;10.27;3.10;;;25.80;51.60;;;;;;5041402;28;20121;-27
2022/06/11 10:57:52;;;;;;;9.25;2.70;;;26.10;53.10;;;;;;5046996;28;20033;-27
2022/06/11 11:00:20;;;;;;;7.00;2.65;;;26.10;52.50;;;;;;5049633;28;20041;-27
2022/06/11 11:02:52;;;;;;;8.68;3.25;;;25.90;51.50;;;;;;5043602;28;20037;-28
2022/06/11 11:05:19;;;;;;;9.50;3.22;;;25.90;52.40;;;;;;5048903;28;20048;-30
2022/06/11 11:07:45;;;;;;;8.10;2.75;;;25.90;53.50;;;;;;5040410;28;20029;-27
2022/06/11 11:10:40;;;;;;;7.53;2.80;;;26.00;53.20;;;;;;5049989;28;20047;-27
2022/06/11 11:13:18;;;;;;;8.20;2.92;;;26.20;52.00;;;;;;5049295;28;20095;-27
2022/06/11 11:16:09;;;;;;;10.70;2.78;;;26.00;49.70;;;;;;5056094;28;20045;-27
2022/06/11 11:19:05;;;;;;;9.85;2.95;;;26.20;52.40;;;;;;5056527;28;20037;-28
2022/06/11 11:22:03;;;;;;;7.28;2.65;;;26.60;51.10;;;;;;5048786;28;20519;-28
2022/06/11 11:24:32;;;;;;;8.75;3.55;;;26.80;54.00;;;;;;5033651;28;20103;-28
2022/06/11 11:27:12;;;;;;;8.45;2.78;;;26.80;52.30;;;;;;5053573;28;20053;-28
2022/06/11 11:29:47;;;;;;;8.93;2.72;;;26.90;50.80;;;;;;5035918;28;20041;-28
2022/06/11 11:32:37;;;;;;;10.55;2.97;;;26.90;50.40;;;;;;5034036;28;20148;-27
2022/06/11 11:35:18;;;;;;;13.45;3.25;;;26.90;50.90;;;;;;5038415;28;20498;-27
2022/06/11 11:37:46;;;;;;;9.20;2.83;;;26.90;49.40;;;;;;5052652;28;20048;-28
2022/06/11 11:40:34;;;;;;;9.98;2.95;;;26.70;49.90;;;;;;5055470;28;20068;-27
2022/06/11 11:43:08;;;;;;;8.85;3.38;;;27.00;51.40;;;;;;5055285;28;20122;-28
2022/06/11 11:45:49;;;;;;;9.43;2.53;;;27.10;50.90;;;;;;5055762;28;20111;-28
2022/06/11 11:48:46;;;;;;;7.22;2.95;;;27.50;48.90;;;;;;5055502;28;20041;-27
2022/06/11 11:51:18;;;;;;;6.97;2.72;;;27.40;47.30;;;;;;5046467;28;20091;-26
2022/06/11 11:53:49;;;;;;;10.40;3.22;;;27.30;49.00;;;;;;5052936;28;20047;-26
2022/06/11 11:56:33;;;;;;;9.10;3.25;;;27.00;49.00;;;;;;5053664;28;20080;-26
2022/06/11 11:59:24;;;;;;;8.55;3.38;;;26.90;49.40;;;;;;5053958;28;20163;-27
2022/06/11 12:01:54;;;;;;;9.13;2.83;;;26.70;50.60;;;;;;5053237;28;20047;-27
2022/06/11 12:04:31;;;;;;;11.35;3.47;;;26.80;50.80;;;;;;5054682;28;20567;-27
2022/06/11 12:07:11;;;;;;;8.48;3.05;;;27.00;51.30;;;;;;5037662;28;20510;-27
2022/06/11 12:10:02;;;;;;;7.65;2.97;;;27.10;54.80;;;;;;5055344;28;20084;-27
2022/06/11 12:12:31;;;;;;;9.27;3.25;;;27.30;50.90;;;;;;5055380;28;20060;-27
2022/06/11 12:15:01;;;;;;;11.15;3.17;;;27.40;52.70;;;;;;5065495;28;20048;-27
2022/06/11 12:17:45;;;;;;;8.38;2.90;;;27.40;52.10;;;;;;5060212;28;20044;-27
2022/06/11 12:20:45;;;;;;;12.35;3.45;;;27.60;52.20;;;;;;5044053;28;20048;-27
2022/06/11 12:23:47;;;;;;;9.00;3.38;;;27.70;50.40;;;;;;5005099;28;20053;-27
2022/06/11 12:26:25;;;;;;;8.48;3.42;;;28.10;49.50;;;;;;5017573;28;20512;-28
2022/06/11 12:29:14;;;;;;;8.85;3.10;;;28.00;49.90;;;;;;5054397;28;20041;-28
2022/06/11 12:31:42;;;;;;;7.43;2.90;;;28.00;49.80;;;;;;5054869;28;20045;-27
2022/06/11 12:34:18;;;;;;;7.43;3.00;;;28.30;49.60;;;;;;5054638;28;20084;-27
2022/06/11 12:36:58;;;;;;;8.73;3.03;;;28.00;47.70;;;;;;5054790;28;20048;-27
2022/06/11 12:39:38;;;;;;;9.63;3.15;;;28.10;49.40;;;;;;5054941;28;20389;-27
2022/06/11 12:42:40;;;;;;;7.70;2.90;;;28.20;48.30;;;;;;5054672;28;20126;-26
2022/06/11 12:45:44;;;;;;;10.75;3.13;;;28.20;45.60;;;;;;4971155;28;20057;-26
2022/06/11 12:48:13;;;;;;;8.43;3.28;;;28.10;47.80;;;;;;5054738;28;20068;-27
2022/06/11 12:50:53;;;;;;;10.02;3.28;;;28.00;48.60;;;;;;5054515;28;20431;-28
2022/06/11 12:53:42;;;;;;;8.20;2.85;;;27.90;47.70;;;;;;5054353;28;20055;-27
2022/06/11 12:56:11;;;;;;;7.15;2.90;;;28.50;49.90;;;;;;5054550;28;20562;-27
2022/06/11 12:58:49;;;;;;;8.88;3.35;;;28.30;48.00;;;;;;5054164;28;20036;-27
2022/06/11 13:01:21;;;;;;;9.50;3.10;;;28.10;47.70;;;;;;5054650;28;20374;-26
2022/06/11 13:04:29;;;;;;;7.78;3.05;;;28.10;47.30;;;;;;5042004;28;20041;-27
2022/06/11 13:07:11;;;;;;;7.93;3.33;;;28.50;49.90;;;;;;5034092;28;20045;-27
2022/06/11 13:10:14;;;;;;;10.18;3.38;;;28.20;47.40;;;;;;5033998;28;20481;-27
2022/06/11 13:13:07;;;;;;;8.73;2.80;;;28.50;49.30;;;;;;5034704;28;20124;-27
2022/06/11 13:15:50;;;;;;;13.43;3.45;;;28.40;47.30;;;;;;5035445;28;20507;-28
2022/06/11 13:18:55;;;;;;;6.72;2.78;;;28.90;47.70;;;;;;5033913;28;20033;-27